PWSweather.com
Personal Weather Stations
Station Observations
K4FB1
Clubhouse Heritage, Lakeland, FL 33812

Clubhouse HeritageLakeland, FL 33812

Lat: 27.969224, Lon: -81.897769

Elevation: 145

Station Type: Davis Vantage Pro2

http://www.ClubhouseWX.com

High Low Average
Temperature 68.1°F20.1°C 45.0°F7.2°C 61.8°F16.6°C
Dew Point 61.4°F16.3°C 41.7°F5.4°C 52.8°F11.6°C
Winds 11.0 mph 17.7 kmh Calm Calm 5.0 mph SW8.0 kmh SW
Wind Gusts 23.0 mph37.0 kmh -- 11.0 mph17.7 kmh
Humidity 88% 49% 73%
Pressure 29.95 in1014.2 mb 29.67 in1004.7 mb -
Precipitation 0.02 in0.5 mm - -
Hour Temp Dew Point Humidity Winds Wind Gusts Pressure Precip Precip Rate Daily Precip Total
12:00 AM 66.8°F19.3°C 61.5°F16.4°C 83% 1.0 mph E1.6 kmh E 2.0 mph3.2 kmh 29.74 in1007.1 mb 0.04 in1.0 mm 0.00 in0.0 mm 0.04 in1.0 mm
12:05 AM 66.8°F19.3°C 61.5°F16.4°C 83% Calm Calm 1.0 mph1.6 kmh 29.74 in1007.1 mb 0.03 in0.8 mm 0.00 in0.0 mm 0.04 in1.0 mm
12:10 AM 66.8°F19.3°C 61.5°F16.4°C 83% Calm Calm 1.0 mph1.6 kmh 29.74 in1007.1 mb 0.02 in0.5 mm 0.00 in0.0 mm 0.04 in1.0 mm
12:15 AM 66.7°F19.3°C 61.4°F16.3°C 83% Calm Calm 1.0 mph1.6 kmh 29.74 in1007.1 mb 0.02 in0.5 mm 0.00 in0.0 mm 0.04 in1.0 mm
12:20 AM 66.6°F19.2°C 61.3°F16.3°C 83% Calm Calm 2.0 mph3.2 kmh 29.73 in1006.8 mb 0.02 in0.5 mm 0.00 in0.0 mm 0.04 in1.0 mm
12:25 AM 66.7°F19.3°C 61.4°F16.3°C 83% 1.0 mph E1.6 kmh E 2.0 mph3.2 kmh 29.73 in1006.8 mb 0.02 in0.5 mm 0.00 in0.0 mm 0.04 in1.0 mm
12:30 AM 66.7°F19.3°C 61.4°F16.3°C 83% 1.0 mph E1.6 kmh E 2.0 mph3.2 kmh 29.73 in1006.8 mb 0.02 in0.5 mm 0.00 in0.0 mm 0.04 in1.0 mm
12:35 AM 66.7°F19.3°C 61.4°F16.3°C 83% Calm Calm 1.0 mph1.6 kmh 29.73 in1006.8 mb 0.02 in0.5 mm 0.00 in0.0 mm 0.04 in1.0 mm
12:40 AM 66.7°F19.3°C 61.4°F16.3°C 83% Calm Calm 2.0 mph3.2 kmh 29.73 in1006.8 mb 0.01 in0.3 mm 0.00 in0.0 mm 0.04 in1.0 mm
12:45 AM 66.7°F19.3°C 61.4°F16.3°C 83% 1.0 mph E1.6 kmh E 2.0 mph3.2 kmh 29.73 in1006.8 mb 0.01 in0.3 mm 0.00 in0.0 mm 0.04 in1.0 mm
12:50 AM 66.7°F19.3°C 61.4°F16.3°C 83% Calm Calm 1.0 mph1.6 kmh 29.73 in1006.8 mb 0.00 in0.0 mm 0.00 in0.0 mm 0.04 in1.0 mm
12:55 AM 66.7°F19.3°C 61.4°F16.3°C 83% Calm Calm 3.0 mph4.8 kmh 29.73 in1006.8 mb 0.00 in0.0 mm 0.00 in0.0 mm 0.04 in1.0 mm
01:00 AM 66.7°F19.3°C 61.4°F16.3°C 83% 1.0 mph NE1.6 kmh NE 3.0 mph4.8 kmh 29.73 in1006.8 mb 0.00 in0.0 mm 0.00 in0.0 mm 0.04 in1.0 mm
01:05 AM 66.7°F19.3°C 61.4°F16.3°C 83% 1.0 mph NNE1.6 kmh NNE 2.0 mph3.2 kmh 29.73 in1006.8 mb 0.00 in0.0 mm 0.00 in0.0 mm 0.04 in1.0 mm
01:10 AM 66.7°F19.3°C 61.4°F16.3°C 83% Calm Calm 2.0 mph3.2 kmh 29.72 in1006.4 mb 0.00 in0.0 mm 0.00 in0.0 mm 0.04 in1.0 mm
01:15 AM 66.7°F19.3°C 61.4°F16.3°C 83% 1.0 mph NNE1.6 kmh NNE 2.0 mph3.2 kmh 29.72 in1006.4 mb 0.00 in0.0 mm 0.00 in0.0 mm 0.04 in1.0 mm
01:20 AM 66.7°F19.3°C 61.4°F16.3°C 83% Calm Calm 2.0 mph3.2 kmh 29.71 in1006.1 mb 0.00 in0.0 mm 0.00 in0.0 mm 0.04 in1.0 mm
01:25 AM 66.7°F19.3°C 61.4°F16.3°C 83% Calm Calm 1.0 mph1.6 kmh 29.71 in1006.1 mb 0.00 in0.0 mm 0.00 in0.0 mm 0.04 in1.0 mm
01:30 AM 66.8°F19.3°C 61.1°F16.2°C 82% Calm Calm 1.0 mph1.6 kmh 29.71 in1006.1 mb 0.00 in0.0 mm 0.00 in0.0 mm 0.04 in1.0 mm
01:35 AM 66.7°F19.3°C 61.0°F16.1°C 82% Calm Calm 2.0 mph3.2 kmh 29.71 in1006.1 mb 0.00 in0.0 mm 0.00 in0.0 mm 0.04 in1.0 mm
01:40 AM 66.8°F19.3°C 61.1°F16.2°C 82% Calm Calm 2.0 mph3.2 kmh 29.71 in1006.1 mb 0.00 in0.0 mm 0.00 in0.0 mm 0.04 in1.0 mm
01:45 AM 66.8°F19.3°C 61.1°F16.2°C 82% Calm Calm 1.0 mph1.6 kmh 29.71 in1006.1 mb 0.00 in0.0 mm 0.00 in0.0 mm 0.04 in1.0 mm
01:50 AM 66.8°F19.3°C 61.1°F16.2°C 82% Calm Calm 2.0 mph3.2 kmh 29.71 in1006.1 mb 0.00 in0.0 mm 0.00 in0.0 mm 0.04 in1.0 mm
01:55 AM 66.9°F19.4°C 61.2°F16.2°C 82% 1.0 mph NNE1.6 kmh NNE 2.0 mph3.2 kmh 29.71 in1006.1 mb 0.00 in0.0 mm 0.00 in0.0 mm 0.04 in1.0 mm
02:00 AM 66.8°F19.3°C 61.1°F16.2°C 82% 1.0 mph NNE1.6 kmh NNE 2.0 mph3.2 kmh 29.71 in1006.1 mb 0.00 in0.0 mm 0.00 in0.0 mm 0.04 in1.0 mm
02:05 AM 66.8°F19.3°C 61.1°F16.2°C 82% 1.0 mph NNE1.6 kmh NNE 2.0 mph3.2 kmh 29.71 in1006.1 mb 0.00 in0.0 mm 0.00 in0.0 mm 0.04 in1.0 mm
02:10 AM 66.8°F19.3°C 61.1°F16.2°C 82% 1.0 mph NNE1.6 kmh NNE 3.0 mph4.8 kmh 29.71 in1006.1 mb 0.00 in0.0 mm 0.00 in0.0 mm 0.04 in1.0 mm
02:15 AM 66.7°F19.3°C 61.0°F16.1°C 82% 1.0 mph NNE1.6 kmh NNE 3.0 mph4.8 kmh 29.71 in1006.1 mb 0.00 in0.0 mm 0.00 in0.0 mm 0.04 in1.0 mm
02:20 AM 66.7°F19.3°C 61.0°F16.1°C 82% 1.0 mph NNE1.6 kmh NNE 2.0 mph3.2 kmh 29.71 in1006.1 mb 0.00 in0.0 mm 0.00 in0.0 mm 0.04 in1.0 mm
02:25 AM 66.7°F19.3°C 61.0°F16.1°C 82% 1.0 mph NNE1.6 kmh NNE 2.0 mph3.2 kmh 29.70 in1005.8 mb 0.00 in0.0 mm 0.00 in0.0 mm 0.04 in1.0 mm
02:30 AM 66.7°F19.3°C 61.0°F16.1°C 82% 1.0 mph NNE1.6 kmh NNE 3.0 mph4.8 kmh 29.70 in1005.8 mb 0.00 in0.0 mm 0.00 in0.0 mm 0.04 in1.0 mm
02:35 AM 66.7°F19.3°C 61.0°F16.1°C 82% 1.0 mph NNE1.6 kmh NNE 3.0 mph4.8 kmh 29.70 in1005.8 mb 0.00 in0.0 mm 0.00 in0.0 mm 0.04 in1.0 mm
02:40 AM 66.6°F19.2°C 61.3°F16.3°C 83% 1.0 mph N1.6 kmh N 3.0 mph4.8 kmh 29.70 in1005.8 mb 0.00 in0.0 mm 0.00 in0.0 mm 0.04 in1.0 mm
02:45 AM 66.6°F19.2°C 61.3°F16.3°C 83% Calm Calm 2.0 mph3.2 kmh 29.69 in1005.4 mb 0.00 in0.0 mm 0.00 in0.0 mm 0.04 in1.0 mm
02:50 AM 66.5°F19.2°C 61.2°F16.2°C 83% Calm Calm 1.0 mph1.6 kmh 29.68 in1005.1 mb 0.00 in0.0 mm 0.00 in0.0 mm 0.04 in1.0 mm
02:55 AM 66.4°F19.1°C 61.1°F16.2°C 83% Calm Calm 1.0 mph1.6 kmh 29.68 in1005.1 mb 0.00 in0.0 mm 0.00 in0.0 mm 0.04 in1.0 mm
03:00 AM 66.2°F19.0°C 60.9°F16.1°C 83% Calm Calm 1.0 mph1.6 kmh 29.68 in1005.1 mb 0.00 in0.0 mm 0.00 in0.0 mm 0.04 in1.0 mm
03:05 AM 66.0°F18.9°C 60.7°F15.9°C 83% Calm Calm 1.0 mph1.6 kmh 29.68 in1005.1 mb 0.00 in0.0 mm 0.00 in0.0 mm 0.04 in1.0 mm
03:10 AM 65.9°F18.8°C 60.6°F15.9°C 83% Calm Calm 1.0 mph1.6 kmh 29.68 in1005.1 mb 0.00 in0.0 mm 0.00 in0.0 mm 0.04 in1.0 mm
03:15 AM 65.7°F18.7°C 60.4°F15.8°C 83% Calm Calm 1.0 mph1.6 kmh 29.68 in1005.1 mb 0.01 in0.3 mm 0.12 in3.0 mm 0.01 in0.3 mm
03:20 AM 65.6°F18.7°C 60.3°F15.7°C 83% Calm Calm 1.0 mph1.6 kmh 29.68 in1005.1 mb 0.01 in0.3 mm 0.00 in0.0 mm 0.01 in0.3 mm
03:25 AM 65.4°F18.6°C 60.1°F15.6°C 83% Calm Calm 1.0 mph1.6 kmh 29.68 in1005.1 mb 0.01 in0.3 mm 0.00 in0.0 mm 0.01 in0.3 mm
03:30 AM 65.3°F18.5°C 60.0°F15.6°C 83% Calm Calm 2.0 mph3.2 kmh 29.68 in1005.1 mb 0.01 in0.3 mm 0.00 in0.0 mm 0.01 in0.3 mm
03:35 AM 65.2°F18.4°C 59.9°F15.5°C 83% Calm Calm 2.0 mph3.2 kmh 29.67 in1004.7 mb 0.01 in0.3 mm 0.00 in0.0 mm 0.01 in0.3 mm
03:40 AM 65.0°F18.3°C 59.7°F15.4°C 83% Calm Calm 2.0 mph3.2 kmh 29.67 in1004.7 mb 0.01 in0.3 mm 0.00 in0.0 mm 0.01 in0.3 mm
03:45 AM 65.0°F18.3°C 59.7°F15.4°C 83% Calm Calm 2.0 mph3.2 kmh 29.68 in1005.1 mb 0.01 in0.3 mm 0.00 in0.0 mm 0.01 in0.3 mm
03:50 AM 64.9°F18.3°C 59.6°F15.3°C 83% Calm Calm 2.0 mph3.2 kmh 29.67 in1004.7 mb 0.01 in0.3 mm 0.00 in0.0 mm 0.01 in0.3 mm
03:55 AM 64.8°F18.2°C 59.5°F15.3°C 83% Calm Calm 2.0 mph3.2 kmh 29.67 in1004.7 mb 0.01 in0.3 mm 0.00 in0.0 mm 0.01 in0.3 mm
04:00 AM 64.6°F18.1°C 59.3°F15.2°C 83% Calm Calm 2.0 mph3.2 kmh 29.67 in1004.7 mb 0.01 in0.3 mm 0.00 in0.0 mm 0.01 in0.3 mm
04:05 AM 64.4°F18.0°C 59.5°F15.3°C 84% 1.0 mph N1.6 kmh N 2.0 mph3.2 kmh 29.68 in1005.1 mb 0.01 in0.3 mm 0.00 in0.0 mm 0.01 in0.3 mm
04:10 AM 64.5°F18.1°C 59.2°F15.1°C 83% 1.0 mph NNW1.6 kmh NNW 4.0 mph6.4 kmh 29.68 in1005.1 mb 0.00 in0.0 mm 0.00 in0.0 mm 0.01 in0.3 mm
04:15 AM 64.6°F18.1°C 59.3°F15.2°C 83% 2.0 mph NW3.2 kmh NW 4.0 mph6.4 kmh 29.68 in1005.1 mb 0.00 in0.0 mm 0.00 in0.0 mm 0.01 in0.3 mm
04:20 AM 64.7°F18.2°C 59.4°F15.2°C 83% 1.0 mph NW1.6 kmh NW 3.0 mph4.8 kmh 29.68 in1005.1 mb 0.00 in0.0 mm 0.00 in0.0 mm 0.01 in0.3 mm
04:25 AM 64.6°F18.1°C 59.3°F15.2°C 83% 1.0 mph NNW1.6 kmh NNW 2.0 mph3.2 kmh 29.68 in1005.1 mb 0.00 in0.0 mm 0.00 in0.0 mm 0.01 in0.3 mm
04:30 AM 64.5°F18.1°C 59.2°F15.1°C 83% Calm Calm 1.0 mph1.6 kmh 29.68 in1005.1 mb 0.00 in0.0 mm 0.00 in0.0 mm 0.01 in0.3 mm
04:35 AM 64.3°F17.9°C 59.0°F15.0°C 83% Calm Calm 1.0 mph1.6 kmh 29.67 in1004.7 mb 0.00 in0.0 mm 0.00 in0.0 mm 0.01 in0.3 mm
04:40 AM 64.1°F17.8°C 58.8°F14.9°C 83% Calm Calm 1.0 mph1.6 kmh 29.67 in1004.7 mb 0.00 in0.0 mm 0.00 in0.0 mm 0.01 in0.3 mm
04:45 AM 63.9°F17.7°C 59.0°F15.0°C 84% Calm Calm 1.0 mph1.6 kmh 29.67 in1004.7 mb 0.00 in0.0 mm 0.00 in0.0 mm 0.01 in0.3 mm
04:50 AM 63.7°F17.6°C 58.8°F14.9°C 84% Calm Calm 1.0 mph1.6 kmh 29.67 in1004.7 mb 0.00 in0.0 mm 0.00 in0.0 mm 0.01 in0.3 mm
04:55 AM 63.5°F17.5°C 58.6°F14.8°C 84% Calm Calm 2.0 mph3.2 kmh 29.67 in1004.7 mb 0.00 in0.0 mm 0.00 in0.0 mm 0.01 in0.3 mm
05:00 AM 63.4°F17.4°C 58.1°F14.5°C 83% 1.0 mph NW1.6 kmh NW 2.0 mph3.2 kmh 29.67 in1004.7 mb 0.00 in0.0 mm 0.00 in0.0 mm 0.01 in0.3 mm
05:05 AM 63.3°F17.4°C 58.0°F14.4°C 83% 1.0 mph NW1.6 kmh NW 2.0 mph3.2 kmh 29.67 in1004.7 mb 0.00 in0.0 mm 0.00 in0.0 mm 0.01 in0.3 mm
05:10 AM 63.4°F17.4°C 58.1°F14.5°C 83% Calm Calm 2.0 mph3.2 kmh 29.67 in1004.7 mb 0.00 in0.0 mm 0.00 in0.0 mm 0.01 in0.3 mm
05:15 AM 63.4°F17.4°C 58.1°F14.5°C 83% Calm Calm 1.0 mph1.6 kmh 29.67 in1004.7 mb 0.00 in0.0 mm 0.00 in0.0 mm 0.01 in0.3 mm
05:20 AM 63.4°F17.4°C 58.1°F14.5°C 83% Calm Calm 2.0 mph3.2 kmh 29.67 in1004.7 mb 0.00 in0.0 mm 0.00 in0.0 mm 0.01 in0.3 mm
05:25 AM 63.6°F17.6°C 58.3°F14.6°C 83% 1.0 mph NW1.6 kmh NW 4.0 mph6.4 kmh 29.67 in1004.7 mb 0.00 in0.0 mm 0.00 in0.0 mm 0.01 in0.3 mm
05:30 AM 64.0°F17.8°C 58.4°F14.7°C 82% 2.0 mph NW3.2 kmh NW 4.0 mph6.4 kmh 29.67 in1004.7 mb 0.00 in0.0 mm 0.00 in0.0 mm 0.01 in0.3 mm
05:35 AM 64.4°F18.0°C 58.8°F14.9°C 82% 2.0 mph NW3.2 kmh NW 3.0 mph4.8 kmh 29.68 in1005.1 mb 0.00 in0.0 mm 0.00 in0.0 mm 0.01 in0.3 mm
05:40 AM 64.7°F18.2°C 59.1°F15.1°C 82% 2.0 mph NW3.2 kmh NW 3.0 mph4.8 kmh 29.68 in1005.1 mb 0.00 in0.0 mm 0.00 in0.0 mm 0.01 in0.3 mm
05:45 AM 64.9°F18.3°C 59.3°F15.2°C 82% 1.0 mph NW1.6 kmh NW 3.0 mph4.8 kmh 29.68 in1005.1 mb 0.00 in0.0 mm 0.00 in0.0 mm 0.01 in0.3 mm
05:50 AM 65.0°F18.3°C 59.4°F15.2°C 82% 2.0 mph WNW3.2 kmh WNW 7.0 mph11.3 kmh 29.69 in1005.4 mb 0.00 in0.0 mm 0.00 in0.0 mm 0.01 in0.3 mm
05:55 AM 65.2°F18.4°C 59.6°F15.3°C 82% 3.0 mph WNW4.8 kmh WNW 7.0 mph11.3 kmh 29.69 in1005.4 mb 0.00 in0.0 mm 0.00 in0.0 mm 0.01 in0.3 mm
06:00 AM 65.3°F18.5°C 59.7°F15.4°C 82% 2.0 mph WNW3.2 kmh WNW 5.0 mph8.0 kmh 29.69 in1005.4 mb 0.00 in0.0 mm 0.00 in0.0 mm 0.01 in0.3 mm
06:05 AM 65.4°F18.6°C 59.8°F15.4°C 82% 1.0 mph WNW1.6 kmh WNW 4.0 mph6.4 kmh 29.69 in1005.4 mb 0.00 in0.0 mm 0.00 in0.0 mm 0.01 in0.3 mm
06:10 AM 65.7°F18.7°C 60.1°F15.6°C 82% 2.0 mph NW3.2 kmh NW 4.0 mph6.4 kmh 29.68 in1005.1 mb 0.00 in0.0 mm 0.00 in0.0 mm 0.01 in0.3 mm
06:15 AM 65.9°F18.8°C 60.2°F15.7°C 82% 2.0 mph NW3.2 kmh NW 4.0 mph6.4 kmh 29.69 in1005.4 mb 0.00 in0.0 mm 0.00 in0.0 mm 0.01 in0.3 mm
06:20 AM 66.1°F18.9°C 60.4°F15.8°C 82% 2.0 mph NW3.2 kmh NW 5.0 mph8.0 kmh 29.69 in1005.4 mb 0.00 in0.0 mm 0.00 in0.0 mm 0.01 in0.3 mm
06:25 AM 66.3°F19.1°C 60.6°F15.9°C 82% 2.0 mph WNW3.2 kmh WNW 5.0 mph8.0 kmh 29.69 in1005.4 mb 0.00 in0.0 mm 0.00 in0.0 mm 0.01 in0.3 mm
06:30 AM 66.4°F19.1°C 60.7°F15.9°C 82% 2.0 mph WNW3.2 kmh WNW 5.0 mph8.0 kmh 29.69 in1005.4 mb 0.00 in0.0 mm 0.00 in0.0 mm 0.01 in0.3 mm
06:35 AM 66.7°F19.3°C 61.0°F16.1°C 82% 3.0 mph WNW4.8 kmh WNW 7.0 mph11.3 kmh 29.69 in1005.4 mb 0.00 in0.0 mm 0.00 in0.0 mm 0.01 in0.3 mm
06:40 AM 66.8°F19.3°C 61.1°F16.2°C 82% 3.0 mph NW4.8 kmh NW 9.0 mph14.5 kmh 29.69 in1005.4 mb 0.00 in0.0 mm 0.00 in0.0 mm 0.01 in0.3 mm
06:45 AM 67.0°F19.4°C 61.3°F16.3°C 82% 4.0 mph NW6.4 kmh NW 9.0 mph14.5 kmh 29.70 in1005.8 mb 0.00 in0.0 mm 0.00 in0.0 mm 0.01 in0.3 mm
06:50 AM 66.7°F19.3°C 61.0°F16.1°C 82% 6.0 mph NW9.7 kmh NW 15.0 mph24.1 kmh 29.70 in1005.8 mb 0.00 in0.0 mm 0.00 in0.0 mm 0.01 in0.3 mm
06:55 AM 66.3°F19.1°C 60.6°F15.9°C 82% 8.0 mph NW12.9 kmh NW 21.0 mph33.8 kmh 29.70 in1005.8 mb 0.00 in0.0 mm 0.00 in0.0 mm 0.01 in0.3 mm
07:00 AM 66.2°F19.0°C 60.5°F15.8°C 82% 7.0 mph NW11.3 kmh NW 21.0 mph33.8 kmh 29.71 in1006.1 mb 0.00 in0.0 mm 0.00 in0.0 mm 0.01 in0.3 mm
07:05 AM 66.1°F18.9°C 60.4°F15.8°C 82% 6.0 mph NW9.7 kmh NW 14.0 mph22.5 kmh 29.71 in1006.1 mb 0.00 in0.0 mm 0.00 in0.0 mm 0.01 in0.3 mm
07:10 AM 65.9°F18.8°C 60.2°F15.7°C 82% 6.0 mph NW9.7 kmh NW 13.0 mph20.9 kmh 29.71 in1006.1 mb 0.00 in0.0 mm 0.00 in0.0 mm 0.01 in0.3 mm
07:15 AM 65.5°F18.6°C 59.9°F15.5°C 82% 7.0 mph NW11.3 kmh NW 18.0 mph29.0 kmh 29.71 in1006.1 mb 0.00 in0.0 mm 0.00 in0.0 mm 0.01 in0.3 mm
07:20 AM 65.2°F18.4°C 59.6°F15.3°C 82% 8.0 mph NW12.9 kmh NW 20.0 mph32.2 kmh 29.71 in1006.1 mb 0.00 in0.0 mm 0.00 in0.0 mm 0.01 in0.3 mm
07:25 AM 65.1°F18.4°C 59.5°F15.3°C 82% 8.0 mph NW12.9 kmh NW 20.0 mph32.2 kmh 29.71 in1006.1 mb 0.00 in0.0 mm 0.00 in0.0 mm 0.01 in0.3 mm
07:30 AM 65.1°F18.4°C 59.5°F15.3°C 82% 6.0 mph NW9.7 kmh NW 14.0 mph22.5 kmh 29.72 in1006.4 mb 0.00 in0.0 mm 0.00 in0.0 mm 0.01 in0.3 mm
07:35 AM 65.1°F18.4°C 59.5°F15.3°C 82% 6.0 mph NW9.7 kmh NW 10.0 mph16.1 kmh 29.72 in1006.4 mb 0.00 in0.0 mm 0.00 in0.0 mm 0.01 in0.3 mm
07:40 AM 65.1°F18.4°C 59.5°F15.3°C 82% 6.0 mph NW9.7 kmh NW 15.0 mph24.1 kmh 29.73 in1006.8 mb 0.00 in0.0 mm 0.00 in0.0 mm 0.01 in0.3 mm
07:45 AM 65.1°F18.4°C 59.5°F15.3°C 82% 6.0 mph NW9.7 kmh NW 15.0 mph24.1 kmh 29.73 in1006.8 mb 0.00 in0.0 mm 0.00 in0.0 mm 0.01 in0.3 mm
07:50 AM 65.2°F18.4°C 59.6°F15.3°C 82% 6.0 mph NW9.7 kmh NW 15.0 mph24.1 kmh 29.73 in1006.8 mb 0.00 in0.0 mm 0.00 in0.0 mm 0.01 in0.3 mm
07:55 AM 65.1°F18.4°C 59.5°F15.3°C 82% 6.0 mph NW9.7 kmh NW 12.0 mph19.3 kmh 29.73 in1006.8 mb 0.00 in0.0 mm 0.00 in0.0 mm 0.01 in0.3 mm
08:00 AM 65.2°F18.4°C 59.9°F15.5°C 83% 5.0 mph NW8.0 kmh NW 12.0 mph19.3 kmh 29.73 in1006.8 mb 0.00 in0.0 mm 0.00 in0.0 mm 0.01 in0.3 mm
08:05 AM 65.2°F18.4°C 59.9°F15.5°C 83% 4.0 mph NW6.4 kmh NW 11.0 mph17.7 kmh 29.73 in1006.8 mb 0.00 in0.0 mm 0.00 in0.0 mm 0.01 in0.3 mm
08:10 AM 65.2°F18.4°C 59.9°F15.5°C 83% 4.0 mph WNW6.4 kmh WNW 11.0 mph17.7 kmh 29.74 in1007.1 mb 0.00 in0.0 mm 0.00 in0.0 mm 0.01 in0.3 mm
08:15 AM 65.3°F18.5°C 60.3°F15.7°C 84% 5.0 mph WNW8.0 kmh WNW 11.0 mph17.7 kmh 29.74 in1007.1 mb 0.00 in0.0 mm 0.00 in0.0 mm 0.01 in0.3 mm
08:20 AM 65.3°F18.5°C 60.3°F15.7°C 84% 5.0 mph NW8.0 kmh NW 11.0 mph17.7 kmh 29.74 in1007.1 mb 0.00 in0.0 mm 0.00 in0.0 mm 0.01 in0.3 mm
08:25 AM 65.3°F18.5°C 60.7°F15.9°C 85% 6.0 mph WNW9.7 kmh WNW 12.0 mph19.3 kmh 29.73 in1006.8 mb 0.00 in0.0 mm 0.00 in0.0 mm 0.01 in0.3 mm
08:30 AM 65.2°F18.4°C 60.6°F15.9°C 85% 6.0 mph WNW9.7 kmh WNW 14.0 mph22.5 kmh 29.74 in1007.1 mb 0.00 in0.0 mm 0.00 in0.0 mm 0.01 in0.3 mm
08:35 AM 65.2°F18.4°C 60.9°F16.1°C 86% 6.0 mph WNW9.7 kmh WNW 14.0 mph22.5 kmh 29.74 in1007.1 mb 0.00 in0.0 mm 0.00 in0.0 mm 0.01 in0.3 mm
08:40 AM 65.3°F18.5°C 61.0°F16.1°C 86% 6.0 mph WNW9.7 kmh WNW 14.0 mph22.5 kmh 29.74 in1007.1 mb 0.00 in0.0 mm 0.00 in0.0 mm 0.01 in0.3 mm
08:45 AM 65.2°F18.4°C 61.2°F16.2°C 87% 8.0 mph WNW12.9 kmh WNW 16.0 mph25.7 kmh 29.74 in1007.1 mb 0.00 in0.0 mm 0.00 in0.0 mm 0.01 in0.3 mm
08:50 AM 65.0°F18.3°C 61.0°F16.1°C 87% 9.0 mph WNW14.5 kmh WNW 18.0 mph29.0 kmh 29.75 in1007.5 mb 0.00 in0.0 mm 0.00 in0.0 mm 0.01 in0.3 mm
08:55 AM 64.1°F17.8°C 60.2°F15.7°C 87% 9.0 mph NW14.5 kmh NW 20.0 mph32.2 kmh 29.76 in1007.8 mb 0.00 in0.0 mm 0.00 in0.0 mm 0.01 in0.3 mm
09:00 AM 63.5°F17.5°C 59.6°F15.3°C 87% 9.0 mph NW14.5 kmh NW 20.0 mph32.2 kmh 29.76 in1007.8 mb 0.00 in0.0 mm 0.00 in0.0 mm 0.01 in0.3 mm
09:05 AM 63.2°F17.3°C 59.3°F15.2°C 87% 8.0 mph NW12.9 kmh NW 17.0 mph27.4 kmh 29.76 in1007.8 mb 0.00 in0.0 mm 0.00 in0.0 mm 0.01 in0.3 mm
09:10 AM 63.2°F17.3°C 59.3°F15.2°C 87% 8.0 mph NW12.9 kmh NW 17.0 mph27.4 kmh 29.77 in1008.1 mb 0.00 in0.0 mm 0.00 in0.0 mm 0.01 in0.3 mm
09:15 AM 63.2°F17.3°C 58.9°F14.9°C 86% 8.0 mph NW12.9 kmh NW 23.0 mph37.0 kmh 29.77 in1008.1 mb 0.00 in0.0 mm 0.00 in0.0 mm 0.01 in0.3 mm
09:20 AM 63.1°F17.3°C 58.8°F14.9°C 86% 8.0 mph NW12.9 kmh NW 23.0 mph37.0 kmh 29.77 in1008.1 mb 0.00 in0.0 mm 0.00 in0.0 mm 0.01 in0.3 mm
09:25 AM 63.1°F17.3°C 58.5°F14.7°C 85% 9.0 mph NW14.5 kmh NW 20.0 mph32.2 kmh 29.77 in1008.1 mb 0.00 in0.0 mm 0.00 in0.0 mm 0.01 in0.3 mm
09:30 AM 63.4°F17.4°C 58.8°F14.9°C 85% 8.0 mph NW12.9 kmh NW 20.0 mph32.2 kmh 29.77 in1008.1 mb 0.00 in0.0 mm 0.00 in0.0 mm 0.01 in0.3 mm
09:35 AM 63.4°F17.4°C 58.5°F14.7°C 84% 7.0 mph NW11.3 kmh NW 15.0 mph24.1 kmh 29.77 in1008.1 mb 0.00 in0.0 mm 0.00 in0.0 mm 0.01 in0.3 mm
09:40 AM 62.9°F17.2°C 57.7°F14.3°C 83% 9.0 mph NW14.5 kmh NW 19.0 mph30.6 kmh 29.78 in1008.5 mb 0.00 in0.0 mm 0.00 in0.0 mm 0.01 in0.3 mm
09:45 AM 62.5°F16.9°C 56.9°F13.8°C 82% 10.0 mph NW16.1 kmh NW 19.0 mph30.6 kmh 29.78 in1008.5 mb 0.00 in0.0 mm 0.00 in0.0 mm 0.01 in0.3 mm
09:50 AM 62.6°F17.0°C 57.4°F14.1°C 83% 9.0 mph NW14.5 kmh NW 18.0 mph29.0 kmh 29.78 in1008.5 mb 0.00 in0.0 mm 0.00 in0.0 mm 0.01 in0.3 mm
09:55 AM 62.6°F17.0°C 57.0°F13.9°C 82% 9.0 mph NW14.5 kmh NW 18.0 mph29.0 kmh 29.78 in1008.5 mb 0.00 in0.0 mm 0.00 in0.0 mm 0.01 in0.3 mm
10:00 AM 62.3°F16.8°C 56.4°F13.6°C 81% 11.0 mph NW17.7 kmh NW 20.0 mph32.2 kmh 29.78 in1008.5 mb 0.00 in0.0 mm 0.00 in0.0 mm 0.01 in0.3 mm
10:05 AM 62.2°F16.8°C 56.3°F13.5°C 81% 11.0 mph NW17.7 kmh NW 20.0 mph32.2 kmh 29.78 in1008.5 mb 0.00 in0.0 mm 0.00 in0.0 mm 0.01 in0.3 mm
10:10 AM 62.5°F16.9°C 56.2°F13.4°C 80% 9.0 mph WNW14.5 kmh WNW 18.0 mph29.0 kmh 29.79 in1008.8 mb 0.00 in0.0 mm 0.00 in0.0 mm 0.01 in0.3 mm
10:15 AM 62.9°F17.2°C 56.6°F13.7°C 80% 8.0 mph WNW12.9 kmh WNW 17.0 mph27.4 kmh 29.79 in1008.8 mb 0.00 in0.0 mm 0.00 in0.0 mm 0.01 in0.3 mm
10:20 AM 63.0°F17.2°C 56.4°F13.6°C 79% 7.0 mph NW11.3 kmh NW 17.0 mph27.4 kmh 29.79 in1008.8 mb 0.00 in0.0 mm 0.00 in0.0 mm 0.01 in0.3 mm
10:25 AM 63.1°F17.3°C 56.5°F13.6°C 79% 6.0 mph NW9.7 kmh NW 16.0 mph25.7 kmh 29.79 in1008.8 mb 0.00 in0.0 mm 0.00 in0.0 mm 0.01 in0.3 mm
10:30 AM 63.2°F17.3°C 55.9°F13.3°C 77% 8.0 mph NW12.9 kmh NW 16.0 mph25.7 kmh 29.79 in1008.8 mb 0.00 in0.0 mm 0.00 in0.0 mm 0.01 in0.3 mm
10:35 AM 63.4°F17.4°C 56.1°F13.4°C 77% 8.0 mph NW12.9 kmh NW 18.0 mph29.0 kmh 29.79 in1008.8 mb 0.00 in0.0 mm 0.00 in0.0 mm 0.01 in0.3 mm
10:40 AM 63.4°F17.4°C 55.3°F12.9°C 75% 9.0 mph NW14.5 kmh NW 21.0 mph33.8 kmh 29.79 in1008.8 mb 0.00 in0.0 mm 0.00 in0.0 mm 0.01 in0.3 mm
10:45 AM 63.4°F17.4°C 55.0°F12.8°C 74% 10.0 mph NW16.1 kmh NW 21.0 mph33.8 kmh 29.79 in1008.8 mb 0.00 in0.0 mm 0.00 in0.0 mm 0.01 in0.3 mm
10:50 AM 63.6°F17.6°C 55.2°F12.9°C 74% 9.0 mph NW14.5 kmh NW 16.0 mph25.7 kmh 29.80 in1009.1 mb 0.00 in0.0 mm 0.00 in0.0 mm 0.01 in0.3 mm
10:55 AM 63.8°F17.7°C 54.6°F12.6°C 72% 8.0 mph NW12.9 kmh NW 16.0 mph25.7 kmh 29.79 in1008.8 mb 0.00 in0.0 mm 0.00 in0.0 mm 0.01 in0.3 mm
11:00 AM 63.8°F17.7°C 54.2°F12.3°C 71% 8.0 mph WNW12.9 kmh WNW 17.0 mph27.4 kmh 29.79 in1008.8 mb 0.00 in0.0 mm 0.00 in0.0 mm 0.01 in0.3 mm
11:05 AM 64.0°F17.8°C 54.4°F12.4°C 71% 8.0 mph NW12.9 kmh NW 17.0 mph27.4 kmh 29.79 in1008.8 mb 0.00 in0.0 mm 0.00 in0.0 mm 0.01 in0.3 mm
11:10 AM 64.0°F17.8°C 53.6°F12.0°C 69% 8.0 mph NW12.9 kmh NW 20.0 mph32.2 kmh 29.79 in1008.8 mb 0.01 in0.3 mm 0.12 in3.0 mm 0.02 in0.5 mm
11:15 AM 64.1°F17.8°C 54.1°F12.3°C 70% 8.0 mph WNW12.9 kmh WNW 20.0 mph32.2 kmh 29.79 in1008.8 mb 0.01 in0.3 mm 0.00 in0.0 mm 0.02 in0.5 mm
11:20 AM 64.3°F17.9°C 54.7°F12.6°C 71% 8.0 mph WNW12.9 kmh WNW 19.0 mph30.6 kmh 29.79 in1008.8 mb 0.01 in0.3 mm 0.00 in0.0 mm 0.02 in0.5 mm
11:25 AM 64.4°F18.0°C 54.0°F12.2°C 69% 9.0 mph WNW14.5 kmh WNW 19.0 mph30.6 kmh 29.78 in1008.5 mb 0.01 in0.3 mm 0.00 in0.0 mm 0.02 in0.5 mm
11:30 AM 64.5°F18.1°C 54.1°F12.3°C 69% 8.0 mph WNW12.9 kmh WNW 17.0 mph27.4 kmh 29.79 in1008.8 mb 0.01 in0.3 mm 0.00 in0.0 mm 0.02 in0.5 mm
11:35 AM 64.9°F18.3°C 54.1°F12.3°C 68% 7.0 mph WNW11.3 kmh WNW 17.0 mph27.4 kmh 29.79 in1008.8 mb 0.01 in0.3 mm 0.00 in0.0 mm 0.02 in0.5 mm
11:40 AM 65.0°F18.3°C 53.8°F12.1°C 67% 8.0 mph NW12.9 kmh NW 18.0 mph29.0 kmh 29.79 in1008.8 mb 0.01 in0.3 mm 0.00 in0.0 mm 0.02 in0.5 mm
11:45 AM 65.0°F18.3°C 53.4°F11.9°C 66% 9.0 mph NW14.5 kmh NW 18.0 mph29.0 kmh 29.79 in1008.8 mb 0.01 in0.3 mm 0.00 in0.0 mm 0.02 in0.5 mm
11:50 AM 65.4°F18.6°C 54.2°F12.3°C 67% 8.0 mph NW12.9 kmh NW 18.0 mph29.0 kmh 29.79 in1008.8 mb 0.01 in0.3 mm 0.00 in0.0 mm 0.02 in0.5 mm
11:55 AM 65.6°F18.7°C 54.3°F12.4°C 67% 7.0 mph NW11.3 kmh NW 15.0 mph24.1 kmh 29.80 in1009.1 mb 0.01 in0.3 mm 0.00 in0.0 mm 0.02 in0.5 mm
12:00 PM 65.7°F18.7°C 54.0°F12.2°C 66% 8.0 mph WNW12.9 kmh WNW 17.0 mph27.4 kmh 29.80 in1009.1 mb 0.01 in0.3 mm 0.00 in0.0 mm 0.02 in0.5 mm
12:05 PM 66.0°F18.9°C 54.3°F12.4°C 66% 8.0 mph WNW12.9 kmh WNW 17.0 mph27.4 kmh 29.80 in1009.1 mb 0.01 in0.3 mm 0.00 in0.0 mm 0.02 in0.5 mm
12:10 PM 66.4°F19.1°C 54.3°F12.4°C 65% 7.0 mph WNW11.3 kmh WNW 17.0 mph27.4 kmh 29.80 in1009.1 mb 0.00 in0.0 mm 0.00 in0.0 mm 0.02 in0.5 mm
12:15 PM 66.2°F19.0°C 52.8°F11.6°C 62% 8.0 mph WNW12.9 kmh WNW 18.0 mph29.0 kmh 29.80 in1009.1 mb 0.00 in0.0 mm 0.00 in0.0 mm 0.02 in0.5 mm
12:20 PM 66.1°F18.9°C 53.1°F11.7°C 63% 9.0 mph NW14.5 kmh NW 18.0 mph29.0 kmh 29.80 in1009.1 mb 0.00 in0.0 mm 0.00 in0.0 mm 0.02 in0.5 mm
12:25 PM 66.2°F19.0°C 53.2°F11.8°C 63% 9.0 mph NW14.5 kmh NW 18.0 mph29.0 kmh 29.80 in1009.1 mb 0.00 in0.0 mm 0.00 in0.0 mm 0.02 in0.5 mm
12:30 PM 65.8°F18.8°C 52.4°F11.3°C 62% 10.0 mph NW16.1 kmh NW 20.0 mph32.2 kmh 29.80 in1009.1 mb 0.00 in0.0 mm 0.00 in0.0 mm 0.02 in0.5 mm
12:35 PM 65.8°F18.8°C 53.3°F11.8°C 64% 10.0 mph NW16.1 kmh NW 20.0 mph32.2 kmh 29.80 in1009.1 mb 0.00 in0.0 mm 0.00 in0.0 mm 0.02 in0.5 mm
12:40 PM 66.2°F19.0°C 54.1°F12.3°C 65% 9.0 mph NW14.5 kmh NW 17.0 mph27.4 kmh 29.80 in1009.1 mb 0.00 in0.0 mm 0.00 in0.0 mm 0.02 in0.5 mm
12:45 PM 66.2°F19.0°C 53.2°F11.8°C 63% 8.0 mph NW12.9 kmh NW 19.0 mph30.6 kmh 29.79 in1008.8 mb 0.00 in0.0 mm 0.00 in0.0 mm 0.02 in0.5 mm
12:50 PM 66.4°F19.1°C 53.4°F11.9°C 63% 8.0 mph NW12.9 kmh NW 19.0 mph30.6 kmh 29.79 in1008.8 mb 0.00 in0.0 mm 0.00 in0.0 mm 0.02 in0.5 mm
12:55 PM 66.2°F19.0°C 51.9°F11.1°C 60% 9.0 mph NW14.5 kmh NW 22.0 mph35.4 kmh 29.79 in1008.8 mb 0.00 in0.0 mm 0.00 in0.0 mm 0.02 in0.5 mm
01:00 PM 65.8°F18.8°C 52.0°F11.1°C 61% 10.0 mph NW16.1 kmh NW 22.0 mph35.4 kmh 29.79 in1008.8 mb 0.00 in0.0 mm 0.00 in0.0 mm 0.02 in0.5 mm
01:05 PM 66.0°F18.9°C 52.6°F11.4°C 62% 8.0 mph WNW12.9 kmh WNW 20.0 mph32.2 kmh 29.79 in1008.8 mb 0.00 in0.0 mm 0.00 in0.0 mm 0.02 in0.5 mm
01:10 PM 66.2°F19.0°C 53.2°F11.8°C 63% 8.0 mph WNW12.9 kmh WNW 18.0 mph29.0 kmh 29.79 in1008.8 mb 0.00 in0.0 mm 0.00 in0.0 mm 0.02 in0.5 mm
01:15 PM 66.1°F18.9°C 52.3°F11.3°C 61% 10.0 mph NW16.1 kmh NW 22.0 mph35.4 kmh 29.79 in1008.8 mb 0.00 in0.0 mm 0.00 in0.0 mm 0.02 in0.5 mm
01:20 PM 66.0°F18.9°C 53.5°F11.9°C 64% 10.0 mph NW16.1 kmh NW 22.0 mph35.4 kmh 29.79 in1008.8 mb 0.00 in0.0 mm 0.00 in0.0 mm 0.02 in0.5 mm
01:25 PM 66.4°F19.1°C 53.4°F11.9°C 63% 8.0 mph NW12.9 kmh NW 16.0 mph25.7 kmh 29.78 in1008.5 mb 0.00 in0.0 mm 0.00 in0.0 mm 0.02 in0.5 mm
01:30 PM 66.5°F19.2°C 52.6°F11.4°C 61% 8.0 mph WNW12.9 kmh WNW 19.0 mph30.6 kmh 29.78 in1008.5 mb 0.00 in0.0 mm 0.00 in0.0 mm 0.02 in0.5 mm
01:35 PM 66.5°F19.2°C 52.6°F11.4°C 61% 9.0 mph NW14.5 kmh NW 20.0 mph32.2 kmh 29.78 in1008.5 mb 0.00 in0.0 mm 0.00 in0.0 mm 0.02 in0.5 mm
01:40 PM 66.4°F19.1°C 52.1°F11.2°C 60% 9.0 mph WNW14.5 kmh WNW 20.0 mph32.2 kmh 29.78 in1008.5 mb 0.00 in0.0 mm 0.00 in0.0 mm 0.02 in0.5 mm
01:45 PM 66.3°F19.1°C 52.4°F11.3°C 61% 9.0 mph WNW14.5 kmh WNW 20.0 mph32.2 kmh 29.78 in1008.5 mb 0.00 in0.0 mm 0.00 in0.0 mm 0.02 in0.5 mm
01:50 PM 66.6°F19.2°C 52.3°F11.3°C 60% 8.0 mph WNW12.9 kmh WNW 17.0 mph27.4 kmh 29.78 in1008.5 mb 0.00 in0.0 mm 0.00 in0.0 mm 0.02 in0.5 mm
01:55 PM 66.8°F19.3°C 52.0°F11.1°C 59% 8.0 mph WNW12.9 kmh WNW 16.0 mph25.7 kmh 29.78 in1008.5 mb 0.00 in0.0 mm 0.00 in0.0 mm 0.02 in0.5 mm
02:00 PM 66.8°F19.3°C 52.5°F11.4°C 60% 8.0 mph NW12.9 kmh NW 17.0 mph27.4 kmh 29.78 in1008.5 mb 0.00 in0.0 mm 0.00 in0.0 mm 0.02 in0.5 mm
02:05 PM 66.7°F19.3°C 51.9°F11.1°C 59% 9.0 mph NW14.5 kmh NW 18.0 mph29.0 kmh 29.78 in1008.5 mb 0.00 in0.0 mm 0.00 in0.0 mm 0.02 in0.5 mm
02:10 PM 66.6°F19.2°C 52.3°F11.3°C 60% 9.0 mph NW14.5 kmh NW 18.0 mph29.0 kmh 29.77 in1008.1 mb 0.00 in0.0 mm 0.00 in0.0 mm 0.02 in0.5 mm
02:15 PM 66.7°F19.3°C 52.8°F11.6°C 61% 9.0 mph NW14.5 kmh NW 18.0 mph29.0 kmh 29.77 in1008.1 mb 0.00 in0.0 mm 0.00 in0.0 mm 0.02 in0.5 mm
02:20 PM 66.6°F19.2°C 52.3°F11.3°C 60% 9.0 mph NW14.5 kmh NW 21.0 mph33.8 kmh 29.78 in1008.5 mb 0.00 in0.0 mm 0.00 in0.0 mm 0.02 in0.5 mm
02:25 PM 66.6°F19.2°C 52.7°F11.5°C 61% 8.0 mph WNW12.9 kmh WNW 21.0 mph33.8 kmh 29.78 in1008.5 mb 0.00 in0.0 mm 0.00 in0.0 mm 0.02 in0.5 mm
02:30 PM 66.8°F19.3°C 52.5°F11.4°C 60% 8.0 mph WNW12.9 kmh WNW 18.0 mph29.0 kmh 29.78 in1008.5 mb 0.00 in0.0 mm 0.00 in0.0 mm 0.02 in0.5 mm
02:35 PM 67.1°F19.5°C 52.3°F11.3°C 59% 8.0 mph WNW12.9 kmh WNW 18.0 mph29.0 kmh 29.77 in1008.1 mb 0.00 in0.0 mm 0.00 in0.0 mm 0.02 in0.5 mm
02:40 PM 67.2°F19.6°C 51.4°F10.8°C 57% 8.0 mph WNW12.9 kmh WNW 17.0 mph27.4 kmh 29.77 in1008.1 mb 0.00 in0.0 mm 0.00 in0.0 mm 0.02 in0.5 mm
02:45 PM 67.4°F19.7°C 51.2°F10.7°C 56% 8.0 mph NW12.9 kmh NW 17.0 mph27.4 kmh 29.77 in1008.1 mb 0.00 in0.0 mm 0.00 in0.0 mm 0.02 in0.5 mm
02:50 PM 67.5°F19.7°C 51.7°F10.9°C 57% 8.0 mph NW12.9 kmh NW 19.0 mph30.6 kmh 29.77 in1008.1 mb 0.00 in0.0 mm 0.00 in0.0 mm 0.02 in0.5 mm
02:55 PM 67.9°F19.9°C 50.6°F10.3°C 54% 7.0 mph WNW11.3 kmh WNW 19.0 mph30.6 kmh 29.77 in1008.1 mb 0.00 in0.0 mm 0.00 in0.0 mm 0.02 in0.5 mm
03:00 PM 67.8°F19.9°C 50.0°F10.0°C 53% 7.0 mph NW11.3 kmh NW 18.0 mph29.0 kmh 29.77 in1008.1 mb 0.00 in0.0 mm 0.00 in0.0 mm 0.02 in0.5 mm
03:05 PM 67.5°F19.7°C 50.8°F10.4°C 55% 8.0 mph NW12.9 kmh NW 18.0 mph29.0 kmh 29.77 in1008.1 mb 0.00 in0.0 mm 0.00 in0.0 mm 0.02 in0.5 mm
03:10 PM 68.1°F20.1°C 50.3°F10.2°C 53% 6.0 mph WNW9.7 kmh WNW 16.0 mph25.7 kmh 29.77 in1008.1 mb 0.00 in0.0 mm 0.00 in0.0 mm 0.02 in0.5 mm
03:15 PM 67.9°F19.9°C 49.1°F9.5°C 51% 7.0 mph NW11.3 kmh NW 17.0 mph27.4 kmh 29.77 in1008.1 mb 0.00 in0.0 mm 0.00 in0.0 mm 0.02 in0.5 mm
03:20 PM 67.2°F19.6°C 49.0°F9.4°C 52% 9.0 mph NW14.5 kmh NW 19.0 mph30.6 kmh 29.77 in1008.1 mb 0.00 in0.0 mm 0.00 in0.0 mm 0.02 in0.5 mm
03:25 PM 67.1°F19.5°C 49.9°F9.9°C 54% 10.0 mph NW16.1 kmh NW 19.0 mph30.6 kmh 29.76 in1007.8 mb 0.00 in0.0 mm 0.00 in0.0 mm 0.02 in0.5 mm
03:30 PM 67.5°F19.7°C 50.3°F10.2°C 54% 8.0 mph NW12.9 kmh NW 19.0 mph30.6 kmh 29.77 in1008.1 mb 0.00 in0.0 mm 0.00 in0.0 mm 0.02 in0.5 mm
03:35 PM 67.6°F19.8°C 49.3°F9.6°C 52% 8.0 mph WNW12.9 kmh WNW 18.0 mph29.0 kmh 29.77 in1008.1 mb 0.00 in0.0 mm 0.00 in0.0 mm 0.02 in0.5 mm
03:40 PM 67.5°F19.7°C 49.3°F9.6°C 52% 9.0 mph NW14.5 kmh NW 20.0 mph32.2 kmh 29.77 in1008.1 mb 0.00 in0.0 mm 0.00 in0.0 mm 0.02 in0.5 mm
03:45 PM 67.3°F19.6°C 50.1°F10.1°C 54% 9.0 mph NW14.5 kmh NW 20.0 mph32.2 kmh 29.77 in1008.1 mb 0.00 in0.0 mm 0.00 in0.0 mm 0.02 in0.5 mm
03:50 PM 67.3°F19.6°C 48.5°F9.2°C 51% 9.0 mph WNW14.5 kmh WNW 18.0 mph29.0 kmh 29.77 in1008.1 mb 0.00 in0.0 mm 0.00 in0.0 mm 0.02 in0.5 mm
03:55 PM 66.9°F19.4°C 48.2°F9.0°C 51% 9.0 mph WNW14.5 kmh WNW 20.0 mph32.2 kmh 29.77 in1008.1 mb 0.00 in0.0 mm 0.00 in0.0 mm 0.02 in0.5 mm
04:00 PM 67.1°F19.5°C 47.8°F8.8°C 50% 8.0 mph WNW12.9 kmh WNW 20.0 mph32.2 kmh 29.78 in1008.5 mb 0.00 in0.0 mm 0.00 in0.0 mm 0.02 in0.5 mm
04:05 PM 67.2°F19.6°C 47.9°F8.8°C 50% 7.0 mph WNW11.3 kmh WNW 18.0 mph29.0 kmh 29.78 in1008.5 mb 0.00 in0.0 mm 0.00 in0.0 mm 0.02 in0.5 mm
04:10 PM 67.3°F19.6°C 47.5°F8.6°C 49% 8.0 mph WNW12.9 kmh WNW 17.0 mph27.4 kmh 29.78 in1008.5 mb 0.00 in0.0 mm 0.00 in0.0 mm 0.02 in0.5 mm
04:15 PM 67.4°F19.7°C 47.6°F8.7°C 49% 8.0 mph W12.9 kmh W 17.0 mph27.4 kmh 29.78 in1008.5 mb 0.00 in0.0 mm 0.00 in0.0 mm 0.02 in0.5 mm
04:20 PM 67.5°F19.7°C 47.7°F8.7°C 49% 7.0 mph WNW11.3 kmh WNW 17.0 mph27.4 kmh 29.78 in1008.5 mb 0.00 in0.0 mm 0.00 in0.0 mm 0.02 in0.5 mm
04:25 PM 67.3°F19.6°C 48.0°F8.9°C 50% 8.0 mph NW12.9 kmh NW 17.0 mph27.4 kmh 29.78 in1008.5 mb 0.00 in0.0 mm 0.00 in0.0 mm 0.02 in0.5 mm
04:30 PM 67.2°F19.6°C 47.9°F8.8°C 50% 8.0 mph WNW12.9 kmh WNW 15.0 mph24.1 kmh 29.79 in1008.8 mb 0.00 in0.0 mm 0.00 in0.0 mm 0.02 in0.5 mm
04:35 PM 67.0°F19.4°C 47.2°F8.4°C 49% 7.0 mph W11.3 kmh W 15.0 mph24.1 kmh 29.79 in1008.8 mb 0.00 in0.0 mm 0.00 in0.0 mm 0.02 in0.5 mm
04:40 PM 66.6°F19.2°C 48.4°F9.1°C 52% 7.0 mph WNW11.3 kmh WNW 15.0 mph24.1 kmh 29.79 in1008.8 mb 0.00 in0.0 mm 0.00 in0.0 mm 0.02 in0.5 mm
04:45 PM 66.5°F19.2°C 48.3°F9.1°C 52% 8.0 mph WNW12.9 kmh WNW 17.0 mph27.4 kmh 29.80 in1009.1 mb 0.00 in0.0 mm 0.00 in0.0 mm 0.02 in0.5 mm
04:50 PM 66.2°F19.0°C 48.0°F8.9°C 52% 8.0 mph W12.9 kmh W 17.0 mph27.4 kmh 29.80 in1009.1 mb 0.00 in0.0 mm 0.00 in0.0 mm 0.02 in0.5 mm
04:55 PM 66.1°F18.9°C 48.5°F9.2°C 53% 7.0 mph W11.3 kmh W 15.0 mph24.1 kmh 29.80 in1009.1 mb 0.00 in0.0 mm 0.00 in0.0 mm 0.02 in0.5 mm
05:00 PM 66.1°F18.9°C 48.5°F9.2°C 53% 7.0 mph W11.3 kmh W 17.0 mph27.4 kmh 29.80 in1009.1 mb 0.00 in0.0 mm 0.00 in0.0 mm 0.02 in0.5 mm
05:05 PM 65.7°F18.7°C 48.1°F8.9°C 53% 8.0 mph W12.9 kmh W 18.0 mph29.0 kmh 29.80 in1009.1 mb 0.00 in0.0 mm 0.00 in0.0 mm 0.02 in0.5 mm
05:10 PM 65.2°F18.4°C 47.6°F8.7°C 53% 8.0 mph W12.9 kmh W 18.0 mph29.0 kmh 29.80 in1009.1 mb 0.00 in0.0 mm 0.00 in0.0 mm 0.02 in0.5 mm
05:15 PM 64.7°F18.2°C 47.7°F8.7°C 54% 8.0 mph W12.9 kmh W 19.0 mph30.6 kmh 29.80 in1009.1 mb 0.00 in0.0 mm 0.00 in0.0 mm 0.02 in0.5 mm
05:20 PM 64.7°F18.2°C 48.2°F9.0°C 55% 8.0 mph W12.9 kmh W 19.0 mph30.6 kmh 29.80 in1009.1 mb 0.00 in0.0 mm 0.00 in0.0 mm 0.02 in0.5 mm
05:25 PM 64.5°F18.1°C 48.0°F8.9°C 55% 8.0 mph WNW12.9 kmh WNW 18.0 mph29.0 kmh 29.80 in1009.1 mb 0.00 in0.0 mm 0.00 in0.0 mm 0.02 in0.5 mm
05:30 PM 64.2°F17.9°C 47.7°F8.7°C 55% 8.0 mph WNW12.9 kmh WNW 18.0 mph29.0 kmh 29.81 in1009.5 mb 0.00 in0.0 mm 0.00 in0.0 mm 0.02 in0.5 mm
05:35 PM 64.1°F17.8°C 47.6°F8.7°C 55% 8.0 mph WNW12.9 kmh WNW 18.0 mph29.0 kmh 29.81 in1009.5 mb 0.00 in0.0 mm 0.00 in0.0 mm 0.02 in0.5 mm
05:40 PM 63.8°F17.7°C 47.8°F8.8°C 56% 8.0 mph W12.9 kmh W 19.0 mph30.6 kmh 29.81 in1009.5 mb 0.00 in0.0 mm 0.00 in0.0 mm 0.02 in0.5 mm
05:45 PM 63.6°F17.6°C 47.1°F8.4°C 55% 9.0 mph W14.5 kmh W 19.0 mph30.6 kmh 29.81 in1009.5 mb 0.00 in0.0 mm 0.00 in0.0 mm 0.02 in0.5 mm
05:50 PM 63.5°F17.5°C 47.5°F8.6°C 56% 8.0 mph WNW12.9 kmh WNW 18.0 mph29.0 kmh 29.82 in1009.8 mb 0.00 in0.0 mm 0.00 in0.0 mm 0.02 in0.5 mm
05:55 PM 63.4°F17.4°C 47.4°F8.6°C 56% 7.0 mph WNW11.3 kmh WNW 17.0 mph27.4 kmh 29.82 in1009.8 mb 0.00 in0.0 mm 0.00 in0.0 mm 0.02 in0.5 mm
06:00 PM 63.1°F17.3°C 47.1°F8.4°C 56% 7.0 mph WNW11.3 kmh WNW 17.0 mph27.4 kmh 29.82 in1009.8 mb 0.00 in0.0 mm 0.00 in0.0 mm 0.02 in0.5 mm
06:05 PM 62.8°F17.1°C 47.3°F8.5°C 57% 8.0 mph WNW12.9 kmh WNW 17.0 mph27.4 kmh 29.82 in1009.8 mb 0.00 in0.0 mm 0.00 in0.0 mm 0.02 in0.5 mm
06:10 PM 62.6°F17.0°C 47.1°F8.4°C 57% 8.0 mph NW12.9 kmh NW 20.0 mph32.2 kmh 29.82 in1009.8 mb 0.00 in0.0 mm 0.00 in0.0 mm 0.02 in0.5 mm
06:15 PM 62.3°F16.8°C 45.9°F7.7°C 55% 7.0 mph WNW11.3 kmh WNW 20.0 mph32.2 kmh 29.83 in1010.2 mb 0.00 in0.0 mm 0.00 in0.0 mm 0.02 in0.5 mm
06:20 PM 61.7°F16.5°C 45.4°F7.4°C 55% 7.0 mph WNW11.3 kmh WNW 17.0 mph27.4 kmh 29.83 in1010.2 mb 0.00 in0.0 mm 0.00 in0.0 mm 0.02 in0.5 mm
06:25 PM 61.1°F16.2°C 45.7°F7.6°C 57% 8.0 mph NW12.9 kmh NW 16.0 mph25.7 kmh 29.83 in1010.2 mb 0.00 in0.0 mm 0.00 in0.0 mm 0.02 in0.5 mm
06:30 PM 60.6°F15.9°C 46.2°F7.9°C 59% 8.0 mph NW12.9 kmh NW 16.0 mph25.7 kmh 29.84 in1010.5 mb 0.00 in0.0 mm 0.00 in0.0 mm 0.02 in0.5 mm
06:35 PM 60.2°F15.7°C 45.8°F7.7°C 59% 6.0 mph WNW9.7 kmh WNW 16.0 mph25.7 kmh 29.84 in1010.5 mb 0.00 in0.0 mm 0.00 in0.0 mm 0.02 in0.5 mm
06:40 PM 59.9°F15.5°C 46.0°F7.8°C 60% 6.0 mph WNW9.7 kmh WNW 15.0 mph24.1 kmh 29.84 in1010.5 mb 0.00 in0.0 mm 0.00 in0.0 mm 0.02 in0.5 mm
06:45 PM 59.6°F15.3°C 46.1°F7.8°C 61% 6.0 mph NW9.7 kmh NW 15.0 mph24.1 kmh 29.84 in1010.5 mb 0.00 in0.0 mm 0.00 in0.0 mm 0.02 in0.5 mm
06:50 PM 59.4°F15.2°C 46.4°F8.0°C 62% 5.0 mph NW8.0 kmh NW 13.0 mph20.9 kmh 29.84 in1010.5 mb 0.00 in0.0 mm 0.00 in0.0 mm 0.02 in0.5 mm
06:55 PM 59.1°F15.1°C 46.1°F7.8°C 62% 6.0 mph NW9.7 kmh NW 14.0 mph22.5 kmh 29.84 in1010.5 mb 0.00 in0.0 mm 0.00 in0.0 mm 0.02 in0.5 mm
07:00 PM 58.9°F14.9°C 46.3°F7.9°C 63% 6.0 mph NW9.7 kmh NW 14.0 mph22.5 kmh 29.84 in1010.5 mb 0.00 in0.0 mm 0.00 in0.0 mm 0.02 in0.5 mm
07:05 PM 58.7°F14.8°C 46.5°F8.1°C 64% 6.0 mph NW9.7 kmh NW 14.0 mph22.5 kmh 29.85 in1010.8 mb 0.00 in0.0 mm 0.00 in0.0 mm 0.02 in0.5 mm
07:10 PM 58.6°F14.8°C 46.5°F8.1°C 64% 6.0 mph NW9.7 kmh NW 14.0 mph22.5 kmh 29.84 in1010.5 mb 0.00 in0.0 mm 0.00 in0.0 mm 0.02 in0.5 mm
07:15 PM 58.5°F14.7°C 46.8°F8.2°C 65% 6.0 mph NW9.7 kmh NW 13.0 mph20.9 kmh 29.85 in1010.8 mb 0.00 in0.0 mm 0.00 in0.0 mm 0.02 in0.5 mm
07:20 PM 58.4°F14.7°C 46.7°F8.2°C 65% 7.0 mph NW11.3 kmh NW 13.0 mph20.9 kmh 29.85 in1010.8 mb 0.00 in0.0 mm 0.00 in0.0 mm 0.02 in0.5 mm
07:25 PM 58.2°F14.6°C 46.5°F8.1°C 65% 7.0 mph NW11.3 kmh NW 13.0 mph20.9 kmh 29.85 in1010.8 mb 0.00 in0.0 mm 0.00 in0.0 mm 0.02 in0.5 mm
07:30 PM 58.0°F14.4°C 46.7°F8.2°C 66% 6.0 mph NW9.7 kmh NW 11.0 mph17.7 kmh 29.85 in1010.8 mb 0.00 in0.0 mm 0.00 in0.0 mm 0.02 in0.5 mm
07:35 PM 57.8°F14.3°C 46.9°F8.3°C 67% 5.0 mph NW8.0 kmh NW 11.0 mph17.7 kmh 29.85 in1010.8 mb 0.00 in0.0 mm 0.00 in0.0 mm 0.02 in0.5 mm
07:40 PM 57.6°F14.2°C 46.7°F8.2°C 67% 4.0 mph NW6.4 kmh NW 9.0 mph14.5 kmh 29.85 in1010.8 mb 0.00 in0.0 mm 0.00 in0.0 mm 0.02 in0.5 mm
07:45 PM 57.4°F14.1°C 46.9°F8.3°C 68% 4.0 mph NW6.4 kmh NW 9.0 mph14.5 kmh 29.85 in1010.8 mb 0.00 in0.0 mm 0.00 in0.0 mm 0.02 in0.5 mm
07:50 PM 57.2°F14.0°C 47.1°F8.4°C 69% 4.0 mph NW6.4 kmh NW 9.0 mph14.5 kmh 29.85 in1010.8 mb 0.00 in0.0 mm 0.00 in0.0 mm 0.02 in0.5 mm
07:55 PM 57.0°F13.9°C 46.9°F8.3°C 69% 4.0 mph NW6.4 kmh NW 9.0 mph14.5 kmh 29.85 in1010.8 mb 0.00 in0.0 mm 0.00 in0.0 mm 0.02 in0.5 mm
08:00 PM 56.8°F13.8°C 47.1°F8.4°C 70% 4.0 mph NW6.4 kmh NW 8.0 mph12.9 kmh 29.86 in1011.2 mb 0.00 in0.0 mm 0.00 in0.0 mm 0.02 in0.5 mm
08:05 PM 56.7°F13.7°C 46.6°F8.1°C 69% 4.0 mph NW6.4 kmh NW 9.0 mph14.5 kmh 29.86 in1011.2 mb 0.00 in0.0 mm 0.00 in0.0 mm 0.02 in0.5 mm
08:10 PM 56.5°F13.6°C 46.8°F8.2°C 70% 4.0 mph NW6.4 kmh NW 9.0 mph14.5 kmh 29.86 in1011.2 mb 0.00 in0.0 mm 0.00 in0.0 mm 0.02 in0.5 mm
08:15 PM 56.4°F13.6°C 46.7°F8.2°C 70% 3.0 mph NW4.8 kmh NW 7.0 mph11.3 kmh 29.86 in1011.2 mb 0.00 in0.0 mm 0.00 in0.0 mm 0.02 in0.5 mm
08:20 PM 56.2°F13.4°C 46.9°F8.3°C 71% 3.0 mph NW4.8 kmh NW 7.0 mph11.3 kmh 29.87 in1011.5 mb 0.00 in0.0 mm 0.00 in0.0 mm 0.02 in0.5 mm
08:25 PM 56.0°F13.3°C 46.7°F8.2°C 71% 2.0 mph WNW3.2 kmh WNW 6.0 mph9.7 kmh 29.87 in1011.5 mb 0.00 in0.0 mm 0.00 in0.0 mm 0.02 in0.5 mm
08:30 PM 55.6°F13.1°C 46.3°F7.9°C 71% 2.0 mph WNW3.2 kmh WNW 5.0 mph8.0 kmh 29.87 in1011.5 mb 0.00 in0.0 mm 0.00 in0.0 mm 0.02 in0.5 mm
08:35 PM 55.3°F12.9°C 46.4°F8.0°C 72% 2.0 mph WNW3.2 kmh WNW 6.0 mph9.7 kmh 29.87 in1011.5 mb 0.00 in0.0 mm 0.00 in0.0 mm 0.02 in0.5 mm
08:40 PM 55.1°F12.8°C 46.2°F7.9°C 72% 3.0 mph WNW4.8 kmh WNW 7.0 mph11.3 kmh 29.88 in1011.9 mb 0.00 in0.0 mm 0.00 in0.0 mm 0.02 in0.5 mm
08:45 PM 55.0°F12.8°C 46.1°F7.8°C 72% 3.0 mph WNW4.8 kmh WNW 7.0 mph11.3 kmh 29.88 in1011.9 mb 0.00 in0.0 mm 0.00 in0.0 mm 0.02 in0.5 mm
08:50 PM 54.9°F12.7°C 46.0°F7.8°C 72% 2.0 mph W3.2 kmh W 7.0 mph11.3 kmh 29.89 in1012.2 mb 0.00 in0.0 mm 0.00 in0.0 mm 0.02 in0.5 mm
08:55 PM 54.8°F12.7°C 45.9°F7.7°C 72% 2.0 mph WNW3.2 kmh WNW 5.0 mph8.0 kmh 29.89 in1012.2 mb 0.00 in0.0 mm 0.00 in0.0 mm 0.02 in0.5 mm
09:00 PM 54.6°F12.6°C 46.1°F7.8°C 73% 2.0 mph NW3.2 kmh NW 5.0 mph8.0 kmh 29.89 in1012.2 mb 0.00 in0.0 mm 0.00 in0.0 mm 0.02 in0.5 mm
09:05 PM 54.4°F12.4°C 45.9°F7.7°C 73% 2.0 mph NW3.2 kmh NW 5.0 mph8.0 kmh 29.89 in1012.2 mb 0.00 in0.0 mm 0.00 in0.0 mm 0.02 in0.5 mm
09:10 PM 54.1°F12.3°C 46.0°F7.8°C 74% 2.0 mph NW3.2 kmh NW 5.0 mph8.0 kmh 29.90 in1012.5 mb 0.00 in0.0 mm 0.00 in0.0 mm 0.02 in0.5 mm
09:15 PM 53.8°F12.1°C 45.7°F7.6°C 74% 2.0 mph W3.2 kmh W 4.0 mph6.4 kmh 29.90 in1012.5 mb 0.00 in0.0 mm 0.00 in0.0 mm 0.02 in0.5 mm
09:20 PM 53.5°F11.9°C 45.8°F7.7°C 75% 1.0 mph WSW1.6 kmh WSW 4.0 mph6.4 kmh 29.91 in1012.9 mb 0.00 in0.0 mm 0.00 in0.0 mm 0.02 in0.5 mm
09:25 PM 53.3°F11.8°C 45.6°F7.6°C 75% 1.0 mph SW1.6 kmh SW 3.0 mph4.8 kmh 29.91 in1012.9 mb 0.00 in0.0 mm 0.00 in0.0 mm 0.02 in0.5 mm
09:30 PM 53.1°F11.7°C 45.7°F7.6°C 76% 1.0 mph WSW1.6 kmh WSW 4.0 mph6.4 kmh 29.91 in1012.9 mb 0.00 in0.0 mm 0.00 in0.0 mm 0.02 in0.5 mm
09:35 PM 52.9°F11.6°C 45.5°F7.5°C 76% 1.0 mph W1.6 kmh W 4.0 mph6.4 kmh 29.91 in1012.9 mb 0.00 in0.0 mm 0.00 in0.0 mm 0.02 in0.5 mm
09:40 PM 52.7°F11.5°C 45.3°F7.4°C 76% 1.0 mph W1.6 kmh W 2.0 mph3.2 kmh 29.91 in1012.9 mb 0.00 in0.0 mm 0.00 in0.0 mm 0.02 in0.5 mm
09:45 PM 52.6°F11.4°C 45.6°F7.6°C 77% 1.0 mph W1.6 kmh W 2.0 mph3.2 kmh 29.91 in1012.9 mb 0.00 in0.0 mm 0.00 in0.0 mm 0.02 in0.5 mm
09:50 PM 52.3°F11.3°C 45.3°F7.4°C 77% 1.0 mph W1.6 kmh W 2.0 mph3.2 kmh 29.91 in1012.9 mb 0.00 in0.0 mm 0.00 in0.0 mm 0.02 in0.5 mm
09:55 PM 52.1°F11.2°C 45.4°F7.4°C 78% 1.0 mph W1.6 kmh W 2.0 mph3.2 kmh 29.91 in1012.9 mb 0.00 in0.0 mm 0.00 in0.0 mm 0.02 in0.5 mm
10:00 PM 51.8°F11.0°C 45.2°F7.3°C 78% Calm Calm 2.0 mph3.2 kmh 29.91 in1012.9 mb 0.00 in0.0 mm 0.00 in0.0 mm 0.02 in0.5 mm
10:05 PM 51.5°F10.8°C 45.2°F7.3°C 79% Calm Calm 2.0 mph3.2 kmh 29.91 in1012.9 mb 0.00 in0.0 mm 0.00 in0.0 mm 0.02 in0.5 mm
10:10 PM 51.2°F10.7°C 44.9°F7.2°C 79% 1.0 mph W1.6 kmh W 2.0 mph3.2 kmh 29.92 in1013.2 mb 0.00 in0.0 mm 0.00 in0.0 mm 0.02 in0.5 mm
10:15 PM 50.9°F10.5°C 44.6°F7.0°C 79% Calm Calm 2.0 mph3.2 kmh 29.92 in1013.2 mb 0.00 in0.0 mm 0.00 in0.0 mm 0.02 in0.5 mm
10:20 PM 50.6°F10.3°C 44.7°F7.1°C 80% Calm Calm 2.0 mph3.2 kmh 29.92 in1013.2 mb 0.00 in0.0 mm 0.00 in0.0 mm 0.02 in0.5 mm
10:25 PM 50.3°F10.2°C 44.7°F7.1°C 81% Calm Calm 2.0 mph3.2 kmh 29.92 in1013.2 mb 0.00 in0.0 mm 0.00 in0.0 mm 0.02 in0.5 mm
10:30 PM 49.9°F9.9°C 44.3°F6.8°C 81% Calm Calm 3.0 mph4.8 kmh 29.92 in1013.2 mb 0.00 in0.0 mm 0.00 in0.0 mm 0.02 in0.5 mm
10:35 PM 49.6°F9.8°C 44.3°F6.8°C 82% 1.0 mph W1.6 kmh W 3.0 mph4.8 kmh 29.92 in1013.2 mb 0.00 in0.0 mm 0.00 in0.0 mm 0.02 in0.5 mm
10:40 PM 49.4°F9.7°C 44.1°F6.7°C 82% Calm Calm 2.0 mph3.2 kmh 29.92 in1013.2 mb 0.00 in0.0 mm 0.00 in0.0 mm 0.02 in0.5 mm
10:45 PM 49.1°F9.5°C 44.2°F6.8°C 83% Calm Calm 1.0 mph1.6 kmh 29.93 in1013.5 mb 0.00 in0.0 mm 0.00 in0.0 mm 0.02 in0.5 mm
10:50 PM 48.9°F9.4°C 44.0°F6.7°C 83% Calm Calm 1.0 mph1.6 kmh 29.92 in1013.2 mb 0.00 in0.0 mm 0.00 in0.0 mm 0.02 in0.5 mm
10:55 PM 48.7°F9.3°C 43.8°F6.6°C 83% Calm Calm 1.0 mph1.6 kmh 29.93 in1013.5 mb 0.00 in0.0 mm 0.00 in0.0 mm 0.02 in0.5 mm
11:00 PM 48.5°F9.2°C 43.9°F6.6°C 84% Calm Calm 1.0 mph1.6 kmh 29.93 in1013.5 mb 0.00 in0.0 mm 0.00 in0.0 mm 0.02 in0.5 mm
11:05 PM 48.3°F9.1°C 44.0°F6.7°C 85% Calm Calm 1.0 mph1.6 kmh 29.93 in1013.5 mb 0.00 in0.0 mm 0.00 in0.0 mm 0.02 in0.5 mm
11:10 PM 48.1°F8.9°C 43.8°F6.6°C 85% Calm Calm 1.0 mph1.6 kmh 29.93 in1013.5 mb 0.00 in0.0 mm 0.00 in0.0 mm 0.02 in0.5 mm
11:15 PM 47.8°F8.8°C 43.5°F6.4°C 85% Calm Calm 1.0 mph1.6 kmh 29.93 in1013.5 mb 0.00 in0.0 mm 0.00 in0.0 mm 0.02 in0.5 mm
11:20 PM 47.6°F8.7°C 43.6°F6.4°C 86% Calm Calm -- 29.92 in1013.2 mb 0.00 in0.0 mm 0.00 in0.0 mm 0.02 in0.5 mm
11:25 PM 47.3°F8.5°C 43.3°F6.3°C 86% Calm Calm 1.0 mph1.6 kmh 29.93 in1013.5 mb 0.00 in0.0 mm 0.00 in0.0 mm 0.02 in0.5 mm
11:30 PM 47.1°F8.4°C 43.1°F6.2°C 86% Calm Calm 1.0 mph1.6 kmh 29.93 in1013.5 mb 0.00 in0.0 mm 0.00 in0.0 mm 0.02 in0.5 mm
11:35 PM 46.9°F8.3°C 42.9°F6.1°C 86% Calm Calm 1.0 mph1.6 kmh 29.93 in1013.5 mb 0.00 in0.0 mm 0.00 in0.0 mm 0.02 in0.5 mm
11:40 PM 46.7°F8.2°C 42.7°F5.9°C 86% Calm Calm 1.0 mph1.6 kmh 29.93 in1013.5 mb 0.00 in0.0 mm 0.00 in0.0 mm 0.02 in0.5 mm
11:45 PM 46.5°F8.1°C 42.8°F6.0°C 87% Calm Calm 1.0 mph1.6 kmh 29.93 in1013.5 mb 0.00 in0.0 mm 0.00 in0.0 mm 0.02 in0.5 mm
11:50 PM 46.3°F7.9°C 42.6°F5.9°C 87% Calm Calm 1.0 mph1.6 kmh 29.93 in1013.5 mb 0.00 in0.0 mm 0.00 in0.0 mm 0.02 in0.5 mm
11:55 PM 46.1°F7.8°C 42.4°F5.8°C 87% Calm Calm 1.0 mph1.6 kmh 29.94 in1013.9 mb 0.00 in0.0 mm 0.00 in0.0 mm 0.02 in0.5 mm